Atalandi — SVBA — position and weather

sailwx.info

Track history (hours):
 
Tides and Currents Weather Stations Pressure Air Temp Water Temp Dewpoint Dewpoint Depression Visibility Wind Speed Wind Dir Waves Ship Positions

Atalandi

Last reported at 2017-Aug-16 14:59 UTC. Time now 2017-Aug-16 15:14 UTC.
Position N 58°55' W 003°01'.

Length 248 m; draft 8.5 m.

Type: Ship. MMSI: 240269000.

Date/timePositionNaut miles runAvg speedWind from/ knotsBaromVisibWave heightAir tempDewpointWater temp
2017-Aug-16 14:59N 58°55' W 003°01'0 0.0
2017-Aug-16 14:29N 58°55' W 003°01'0 0.0
2017-Aug-16 13:59N 58°55' W 003°01'0 0.1
2017-Aug-16 13:29N 58°55' W 003°01'0 0.0
2017-Aug-16 12:59N 58°55' W 003°01'0 0.0
2017-Aug-16 12:29N 58°55' W 003°01'0 0.1
2017-Aug-16 11:59N 58°55' W 003°01'0 0.0
2017-Aug-16 11:29N 58°55' W 003°01'0 0.0
2017-Aug-16 10:59N 58°55' W 003°01'0 0.0
2017-Aug-16 10:29N 58°55' W 003°01'0 0.0
2017-Aug-16 09:59N 58°55' W 003°01'0 0.0
2017-Aug-16 09:29N 58°55' W 003°01'0 0.0
2017-Aug-16 08:59N 58°55' W 003°01'0 0.0
2017-Aug-16 08:29N 58°55' W 003°01'0 0.0
2017-Aug-16 07:59N 58°55' W 003°01'0 0.0
2017-Aug-16 07:29N 58°55' W 003°01'0 0.0
2017-Aug-16 06:59N 58°55' W 003°01'0 0.0
2017-Aug-16 06:29N 58°55' W 003°01'0 0.1
2017-Aug-16 05:59N 58°55' W 003°01'0 0.0
2017-Aug-16 05:29N 58°55' W 003°01'0 0.0
2017-Aug-16 04:59N 58°55' W 003°01'0 0.0
2017-Aug-16 04:29N 58°55' W 003°01'0 0.0
2017-Aug-16 03:59N 58°55' W 003°01'0 0.0
2017-Aug-16 03:29N 58°55' W 003°01'0 0.0
2017-Aug-16 02:59N 58°55' W 003°01'0 0.0
2017-Aug-16 02:29N 58°55' W 003°01'0 0.0
2017-Aug-16 01:59N 58°55' W 003°01'0 0.0
2017-Aug-16 01:29N 58°55' W 003°01'0 0.1
2017-Aug-16 00:59N 58°55' W 003°01'0 0.1
2017-Aug-16 00:29N 58°55' W 003°01'0 0.0
2017-Aug-15 23:59N 58°55' W 003°01'0 0.0
2017-Aug-15 23:29N 58°55' W 003°01'0 0.1
2017-Aug-15 22:59N 58°55' W 003°01'0 0.0
2017-Aug-15 22:29N 58°55' W 003°01'0 0.0
2017-Aug-15 21:59N 58°55' W 003°01'0 0.1
2017-Aug-15 21:29N 58°55' W 003°01'0 0.1
2017-Aug-15 20:59N 58°55' W 003°01'0 0.0
2017-Aug-15 20:29N 58°55' W 003°01'0 0.0
2017-Aug-15 19:59N 58°55' W 003°01'0 0.1
2017-Aug-15 19:29N 58°55' W 003°01'0 0.0
2017-Aug-15 18:59N 58°55' W 003°01'0 0.0
2017-Aug-15 18:29N 58°55' W 003°01'0 0.1
2017-Aug-15 17:59N 58°55' W 003°01'0 0.4
2017-Aug-15 17:29N 58°55' W 003°01'0 0.1
2017-Aug-15 16:59N 58°55' W 003°01'0 0.0
2017-Aug-15 16:29N 58°55' W 003°01'0 0.1
2017-Aug-15 15:59N 58°55' W 003°01'0 0.1
2017-Aug-15 15:29N 58°55' W 003°01'0 0.1
2017-Aug-15 14:59N 58°55' W 003°01'0 0.1
2017-Aug-15 14:23N 58°55' W 003°01'0 0.0
2017-Aug-15 13:59N 58°55' W 003°01'0 0.0
2017-Aug-15 13:29N 58°55' W 003°01'0 0.0
2017-Aug-15 12:59N 58°55' W 003°01'0 0.0
2017-Aug-15 12:29N 58°55' W 003°01'0 0.1
2017-Aug-15 11:59N 58°55' W 003°01'0 0.0
2017-Aug-15 11:30N 58°55' W 003°01'0 0.3
2017-Aug-15 11:00N 58°55' W 003°01'1 1.5
2017-Aug-15 10:30N 58°55' W 002°59'0 0.9
2017-Aug-15 10:00N 58°55' W 002°59'1 2.0
2017-Aug-15 09:30N 58°54' W 002°59'1 1.1
2017-Aug-15 09:00N 58°54' W 003°00'0 1.0
2017-Aug-15 08:30N 58°54' W 003°01'1 1.3
2017-Aug-15 08:00N 58°53' W 003°02'2 4.2
2017-Aug-15 07:30N 58°51' W 003°03'510.0
2017-Aug-15 07:00N 58°46' W 003°06'3 6.6
2017-Aug-15 06:30N 58°43' W 003°07'4 9.0
2017-Aug-15 06:00N 58°41' W 002°60'5 9.3
2017-Aug-15 05:30N 58°37' W 002°54'510.7
2017-Aug-15 05:00N 58°35' W 002°45'611.8
2017-Aug-15 04:30N 58°34' W 002°34'  
2017-Aug-12 02:30N 52°05' E 002°41'914.0
2017-Aug-12 01:52N 51°56' E 002°41'513.7
2017-Aug-12 01:29N 51°51' E 002°39'613.4
2017-Aug-12 01:00N 51°45' E 002°33'713.2
2017-Aug-12 00:27N 51°40' E 002°26'612.8
2017-Aug-12 00:00N 51°35' E 002°20'612.5
2017-Aug-11 23:30N 51°30' E 002°15'612.2
2017-Aug-11 23:00N 51°24' E 002°11'612.3
2017-Aug-11 22:30N 51°21' E 002°20'714.6
2017-Aug-11 22:00N 51°23' E 002°31'713.9
2017-Aug-11 21:30N 51°23' E 002°42'5 9.7
2017-Aug-11 21:00N 51°22' E 002°50'713.9
2017-Aug-11 20:30N 51°24' E 003°00'714.1
2017-Aug-11 20:00N 51°24' E 003°12'815.6
2017-Aug-11 19:30N 51°25' E 003°24'815.8
2017-Aug-11 19:01N 51°26' E 003°37'611.0
2017-Aug-11 18:30N 51°24' E 003°45'0 0.4
2017-Aug-11 17:57N 51°24' E 003°45'0 0.5
2017-Aug-11 17:30N 51°24' E 003°45'0 0.1
2017-Aug-11 17:00N 51°24' E 003°45'0 0.0
2017-Aug-11 16:30N 51°24' E 003°45'0 0.0
2017-Aug-11 16:00N 51°24' E 003°45'0 0.0
2017-Aug-11 15:30N 51°24' E 003°45'0 0.0
2017-Aug-11 15:00N 51°24' E 003°45'0 0.0
2017-Aug-11 14:00N 51°24' E 003°45'0 0.0
2017-Aug-11 13:27N 51°24' E 003°45'0 0.0
2017-Aug-11 13:00N 51°24' E 003°45'0 0.0
2017-Aug-11 12:30N 51°24' E 003°45'0 0.0
2017-Aug-11 12:00N 51°24' E 003°45'0 0.0
2017-Aug-11 11:30N 51°24' E 003°45'0 0.0
2017-Aug-11 11:00N 51°24' E 003°45'0 0.4
2017-Aug-11 10:27N 51°24' E 003°45'0 0.2
2017-Aug-11 10:00N 51°24' E 003°45'0 0.0
2017-Aug-11 09:30N 51°24' E 003°45'0 0.0
2017-Aug-11 08:57N 51°24' E 003°45'0 0.0
2017-Aug-11 08:30N 51°24' E 003°45'0 0.0
2017-Aug-11 08:00N 51°24' E 003°45'0 0.0
2017-Aug-11 07:27N 51°24' E 003°45'0 0.0
2017-Aug-11 06:57N 51°24' E 003°45'0 0.2
2017-Aug-11 06:31N 51°24' E 003°45'1 1.9
2017-Aug-11 06:00N 51°24' E 003°44'5 9.4
2017-Aug-11 05:30N 51°26' E 003°36'713.2
2017-Aug-11 05:00N 51°25' E 003°26'714.2
2017-Aug-11 04:31N 51°25' E 003°15'714.4
2017-Aug-11 04:01N 51°24' E 003°03'815.1
2017-Aug-11 03:31N 51°22' E 002°52'713.0
2017-Aug-11 03:00N 51°22' E 002°41'611.9
2017-Aug-11 02:30N 51°22' E 002°32'612.6
2017-Aug-11 02:00N 51°20' E 002°22'815.4
2017-Aug-11 01:30N 51°16' E 002°12'815.3
2017-Aug-11 01:00N 51°12' E 002°01'815.3
2017-Aug-11 00:30N 51°08' E 001°51'815.4
2017-Aug-11 00:00N 51°03' E 001°42'714.8
2017-Aug-10 23:30N 50°58' E 001°33'713.9
2017-Aug-10 23:00N 50°52' E 001°28'713.4
2017-Aug-10 22:28N 50°45' E 001°24'2113.0
2017-Aug-10 20:50N 50°31' E 000°59'1412.8
2017-Aug-10 19:45N 50°26' E 000°39'512.6
2017-Aug-10 19:19N 50°25' E 000°30'512.5
2017-Aug-10 18:55N 50°24' E 000°23'512.3
2017-Aug-10 18:30N 50°22' E 000°15'612.1
2017-Aug-10 18:00N 50°20' E 000°06'612.0
2017-Aug-10 17:29N 50°19' W 000°03'611.7
2017-Aug-10 17:00N 50°17' W 000°12'611.4
2017-Aug-10 16:30N 50°16' W 000°20'1511.1
2017-Aug-10 15:08N 50°12' W 000°43'110.9
2017-Aug-10 15:00N 50°11' W 000°46'511.0
2017-Aug-10 14:30N 50°10' W 000°54'611.4
2017-Aug-10 14:00N 50°08' W 001°02'612.0
2017-Aug-10 13:30N 50°06' W 001°11'612.8
2017-Aug-10 13:00N 50°04' W 001°21'713.6
2017-Aug-10 12:30N 50°02' W 001°31'714.4
2017-Aug-10 12:00N 50°00' W 001°41'815.1
2017-Aug-10 11:30N 49°59' W 001°53'815.6
2017-Aug-10 11:01N 49°57' W 002°05'2215.9
2017-Aug-10 09:39N 49°51' W 002°37'215.7
2017-Aug-10 09:31N 49°51' W 002°40'815.6
2017-Aug-10 09:01N 49°49' W 002°52'815.3
2017-Aug-10 08:31N 49°46' W 003°03'815.0
2017-Aug-10 08:01N 49°43' W 003°13'815.0
2017-Aug-10 07:31N 49°39' W 003°23'815.0
2017-Aug-10 07:00N 49°35' W 003°33'715.0
2017-Aug-10 06:31N 49°31' W 003°43'914.9
2017-Aug-10 05:55N 49°26' W 003°55'1014.7
2017-Aug-10 05:13N 49°21' W 004°08'3913.8
2017-Aug-10 02:25N 49°02' W 004°59'512.8
2017-Aug-10 02:00N 48°59' W 005°06'612.4
2017-Aug-10 01:30N 48°56' W 005°14'612.2
2017-Aug-10 01:00N 48°53' W 005°22'611.8
2017-Aug-10 00:30N 48°50' W 005°30'611.4
2017-Aug-10 00:00N 48°47' W 005°37'76 9.9
2017-Aug-09 16:22N 47°33' W 005°11'6912.8
2017-Aug-09 11:01N 46°60' W 003°43'113.9
2017-Aug-09 10:55N 46°59' W 003°41'613.9
2017-Aug-09 10:30N 46°59' W 003°32'914.0
2017-Aug-09 09:53N 47°00' W 003°20'513.7
2017-Aug-09 09:30N 47°00' W 003°12'713.9
2017-Aug-09 09:00N 47°01' W 003°02'714.1
2017-Aug-09 08:30N 47°02' W 002°52'713.8
2017-Aug-09 08:00N 47°01' W 002°42'714.5
2017-Aug-09 07:30N 47°03' W 002°31'713.8
2017-Aug-09 07:00N 47°07' W 002°23'510.5
2017-Aug-09 06:30N 47°11' W 002°18'713.8
2017-Aug-09 06:01N 47°16' W 002°12'4 8.4
2017-Aug-09 05:29N 47°18' W 002°06'0 0.1
2017-Aug-09 04:13N 47°18' W 002°06'0 0.0
2017-Aug-09 03:22N 47°18' W 002°06'0 0.0
2017-Aug-09 02:34N 47°18' W 002°06'0 0.0
2017-Aug-09 02:28N 47°18' W 002°06'0 0.0
2017-Aug-09 01:25N 47°18' W 002°06'0 0.0
2017-Aug-09 00:55N 47°18' W 002°06'0 0.0
2017-Aug-09 00:28N 47°18' W 002°06'0 0.0
2017-Aug-08 23:58N 47°18' W 002°06'0 0.0
2017-Aug-08 23:28N 47°18' W 002°06'0 0.0
2017-Aug-08 22:58N 47°18' W 002°06'0 0.0
2017-Aug-08 22:28N 47°18' W 002°06'0 0.0
2017-Aug-08 21:58N 47°18' W 002°06'0 0.0
2017-Aug-08 21:28N 47°18' W 002°06'0 0.0
2017-Aug-08 20:58N 47°18' W 002°06'0 0.0
2017-Aug-08 20:22N 47°18' W 002°06'0 0.0
2017-Aug-08 19:55N 47°18' W 002°06'0 0.0
2017-Aug-08 19:13N 47°18' W 002°06'0 0.0
2017-Aug-08 18:49N 47°18' W 002°06'0 0.0
2017-Aug-08 18:25N 47°18' W 002°06'0 0.0
2017-Aug-08 17:43N 47°18' W 002°06'0 0.0
2017-Aug-08 17:22N 47°18' W 002°06'0 0.0
2017-Aug-08 16:46N 47°18' W 002°06'0 0.0
2017-Aug-08 16:28N 47°18' W 002°06'0 0.0
2017-Aug-08 15:55N 47°18' W 002°06'0 0.0
2017-Aug-08 15:25N 47°18' W 002°06'0 0.0
2017-Aug-08 14:55N 47°18' W 002°06'0 0.0
2017-Aug-08 14:28N 47°18' W 002°06'0 0.0
2017-Aug-08 13:55N 47°18' W 002°06'0 0.0
2017-Aug-08 13:28N 47°18' W 002°06'0 0.0
2017-Aug-08 12:58N 47°18' W 002°06'0 0.0
2017-Aug-08 12:28N 47°18' W 002°06'0 0.0
2017-Aug-08 09:10N 47°18' W 002°06'0 0.0
2017-Aug-08 08:55N 47°18' W 002°06'0 0.0
2017-Aug-08 08:25N 47°18' W 002°06'0 0.0
2017-Aug-08 07:55N 47°18' W 002°06'0 0.0
2017-Aug-08 07:28N 47°18' W 002°06'0 0.0
2017-Aug-08 06:58N 47°18' W 002°06'0 0.0
2017-Aug-08 06:22N 47°18' W 002°06'0 0.0
2017-Aug-08 05:58N 47°18' W 002°06'0 0.0
2017-Aug-08 05:28N 47°18' W 002°06'0 0.0
2017-Aug-08 04:52N 47°18' W 002°06'0 0.0
2017-Aug-08 04:25N 47°18' W 002°06'0 0.0
2017-Aug-08 03:58N 47°18' W 002°06'0 0.0
2017-Aug-08 03:19N 47°18' W 002°06'0 0.0
2017-Aug-08 02:58N 47°18' W 002°06'0 0.0
2017-Aug-08 02:10N 47°18' W 002°06'0 0.0
2017-Aug-08 01:55N 47°18' W 002°06'0 0.0
2017-Aug-08 01:28N 47°18' W 002°06'0 0.0
2017-Aug-08 00:46N 47°18' W 002°06'0 0.0
2017-Aug-08 00:22N 47°18' W 002°06'0 0.0
2017-Aug-07 23:55N 47°18' W 002°06'0 0.0
2017-Aug-07 23:28N 47°18' W 002°06'0 0.0
2017-Aug-07 22:58N 47°18' W 002°06'0 0.0
2017-Aug-07 22:16N 47°18' W 002°06'0 0.0
2017-Aug-07 21:01N 47°18' W 002°06'0 0.0
2017-Aug-07 20:49N 47°18' W 002°06'0 0.0
2017-Aug-07 20:19N 47°18' W 002°06'0 0.0
2017-Aug-07 19:52N 47°18' W 002°06'0 0.0
2017-Aug-07 19:25N 47°18' W 002°06'0 0.0
2017-Aug-07 18:58N 47°18' W 002°06'0 0.0
2017-Aug-07 18:10N 47°18' W 002°06'0 0.0
2017-Aug-07 16:46N 47°18' W 002°06'0 0.0
2017-Aug-07 16:20N 47°18' W 002°06'0 0.7
2017-Aug-07 15:57N 47°18' W 002°06'2 4.6
2017-Aug-07 15:30N 47°18' W 002°09'710.1
2017-Aug-07 14:48N 47°13' W 002°17'412.7
2017-Aug-07 14:30N 47°09' W 002°19'4 7.7
2017-Aug-07 14:00N 47°07' W 002°23'1 2.7
2017-Aug-07 13:29N 47°07' W 002°25'1 2.2
2017-Aug-07 13:00N 47°07' W 002°27'1 1.3
2017-Aug-07 12:28N 47°06' W 002°28'0 0.1
2017-Aug-07 11:58N 47°06' W 002°28'0 0.0
2017-Aug-07 11:28N 47°06' W 002°28'0 0.0
2017-Aug-07 10:55N 47°06' W 002°28'0 0.2
2017-Aug-07 10:22N 47°06' W 002°28'0 0.2
2017-Aug-07 09:58N 47°06' W 002°28'0 0.1
2017-Aug-07 09:28N 47°06' W 002°28'0 0.1
2017-Aug-07 08:58N 47°06' W 002°28'0 0.0
2017-Aug-07 08:28N 47°06' W 002°28'0 0.0
2017-Aug-07 07:58N 47°06' W 002°28'0 0.0
2017-Aug-07 07:25N 47°06' W 002°28'0 0.0
2017-Aug-07 06:58N 47°06' W 002°28'0 0.0
2017-Aug-07 06:28N 47°06' W 002°28'0 0.0
2017-Aug-07 05:58N 47°06' W 002°28'1 1.1
2017-Aug-07 05:30N 47°05' W 002°28'3 5.4
2017-Aug-07 05:00N 47°03' W 002°30'3 6.7
2017-Aug-07 04:30N 47°01' W 002°34'4 8.4
2017-Aug-07 04:00N 46°59' W 002°40'5 9.7
2017-Aug-07 03:30N 46°57' W 002°46'5 9.6
2017-Aug-07 03:00N 46°54' W 002°52'5 9.9
2017-Aug-07 02:30N 46°52' W 002°58'510.2
2017-Aug-07 02:01N 46°50' W 003°05'510.4
2017-Aug-07 01:30N 46°47' W 003°12'510.1
2017-Aug-07 01:00N 46°45' W 003°18'5 9.9
2017-Aug-07 00:29N 46°43' W 003°25'1010.1
2017-Aug-06 23:32N 46°39' W 003°38'0 9.9
2017-Aug-06 23:29N 46°38' W 003°38'610.3
2017-Aug-06 22:54N 46°35' W 003°45'5 9.9
2017-Aug-06 22:25N 46°32' W 003°51'7 9.3
2017-Aug-06 21:39N 46°28' W 004°00'7 6.7
2017-Aug-06 20:33N 46°25' W 004°09'1 6.4
2017-Aug-06 20:25N 46°24' W 004°11'  
Track history (hours):
 
Tides and Currents Weather Stations Pressure Air Temp Water Temp Dewpoint Dewpoint Depression Visibility Wind Speed Wind Dir Waves Ship Positions

Atalandi

Last reported at 2017-Aug-16 14:59 UTC. Time now 2017-Aug-16 15:14 UTC.
Position N 58°55' W 003°01'.

Length 248 m; draft 8.5 m.

Type: Ship. MMSI: 240269000.

Date/timePositionNaut miles runAvg speedWind from/ knotsBaromVisibWave heightAir tempDewpointWater temp
2017-Aug-16 14:59N 58°55' W 003°01'0 0.0
2017-Aug-16 14:29N 58°55' W 003°01'0 0.0
2017-Aug-16 13:59N 58°55' W 003°01'0 0.1
2017-Aug-16 13:29N 58°55' W 003°01'0 0.0
2017-Aug-16 12:59N 58°55' W 003°01'0 0.0
2017-Aug-16 12:29N 58°55' W 003°01'0 0.1
2017-Aug-16 11:59N 58°55' W 003°01'0 0.0
2017-Aug-16 11:29N 58°55' W 003°01'0 0.0
2017-Aug-16 10:59N 58°55' W 003°01'0 0.0
2017-Aug-16 10:29N 58°55' W 003°01'0 0.0
2017-Aug-16 09:59N 58°55' W 003°01'0 0.0
2017-Aug-16 09:29N 58°55' W 003°01'0 0.0
2017-Aug-16 08:59N 58°55' W 003°01'0 0.0
2017-Aug-16 08:29N 58°55' W 003°01'0 0.0
2017-Aug-16 07:59N 58°55' W 003°01'0 0.0
2017-Aug-16 07:29N 58°55' W 003°01'0 0.0
2017-Aug-16 06:59N 58°55' W 003°01'0 0.0
2017-Aug-16 06:29N 58°55' W 003°01'0 0.1
2017-Aug-16 05:59N 58°55' W 003°01'0 0.0
2017-Aug-16 05:29N 58°55' W 003°01'0 0.0
2017-Aug-16 04:59N 58°55' W 003°01'0 0.0
2017-Aug-16 04:29N 58°55' W 003°01'0 0.0
2017-Aug-16 03:59N 58°55' W 003°01'0 0.0
2017-Aug-16 03:29N 58°55' W 003°01'0 0.0
2017-Aug-16 02:59N 58°55' W 003°01'0 0.0
2017-Aug-16 02:29N 58°55' W 003°01'0 0.0
2017-Aug-16 01:59N 58°55' W 003°01'0 0.0
2017-Aug-16 01:29N 58°55' W 003°01'0 0.1
2017-Aug-16 00:59N 58°55' W 003°01'0 0.1
2017-Aug-16 00:29N 58°55' W 003°01'0 0.0
2017-Aug-15 23:59N 58°55' W 003°01'0 0.0
2017-Aug-15 23:29N 58°55' W 003°01'0 0.1
2017-Aug-15 22:59N 58°55' W 003°01'0 0.0
2017-Aug-15 22:29N 58°55' W 003°01'0 0.0
2017-Aug-15 21:59N 58°55' W 003°01'0 0.1
2017-Aug-15 21:29N 58°55' W 003°01'0 0.1
2017-Aug-15 20:59N 58°55' W 003°01'0 0.0
2017-Aug-15 20:29N 58°55' W 003°01'0 0.0
2017-Aug-15 19:59N 58°55' W 003°01'0 0.1
2017-Aug-15 19:29N 58°55' W 003°01'0 0.0
2017-Aug-15 18:59N 58°55' W 003°01'0 0.0
2017-Aug-15 18:29N 58°55' W 003°01'0 0.1
2017-Aug-15 17:59N 58°55' W 003°01'0 0.4
2017-Aug-15 17:29N 58°55' W 003°01'0 0.1
2017-Aug-15 16:59N 58°55' W 003°01'0 0.0
2017-Aug-15 16:29N 58°55' W 003°01'0 0.1
2017-Aug-15 15:59N 58°55' W 003°01'0 0.1
2017-Aug-15 15:29N 58°55' W 003°01'0 0.1
2017-Aug-15 14:59N 58°55' W 003°01'0 0.1
2017-Aug-15 14:23N 58°55' W 003°01'0 0.0
2017-Aug-15 13:59N 58°55' W 003°01'0 0.0
2017-Aug-15 13:29N 58°55' W 003°01'0 0.0
2017-Aug-15 12:59N 58°55' W 003°01'0 0.0
2017-Aug-15 12:29N 58°55' W 003°01'0 0.1
2017-Aug-15 11:59N 58°55' W 003°01'0 0.0
2017-Aug-15 11:30N 58°55' W 003°01'0 0.3
2017-Aug-15 11:00N 58°55' W 003°01'1 1.5
2017-Aug-15 10:30N 58°55' W 002°59'0 0.9
2017-Aug-15 10:00N 58°55' W 002°59'1 2.0
2017-Aug-15 09:30N 58°54' W 002°59'1 1.1
2017-Aug-15 09:00N 58°54' W 003°00'0 1.0
2017-Aug-15 08:30N 58°54' W 003°01'1 1.3
2017-Aug-15 08:00N 58°53' W 003°02'2 4.2
2017-Aug-15 07:30N 58°51' W 003°03'510.0
2017-Aug-15 07:00N 58°46' W 003°06'3 6.6
2017-Aug-15 06:30N 58°43' W 003°07'4 9.0
2017-Aug-15 06:00N 58°41' W 002°60'5 9.3
2017-Aug-15 05:30N 58°37' W 002°54'510.7
2017-Aug-15 05:00N 58°35' W 002°45'611.8
2017-Aug-15 04:30N 58°34' W 002°34'  
2017-Aug-12 02:30N 52°05' E 002°41'914.0
2017-Aug-12 01:52N 51°56' E 002°41'513.7
2017-Aug-12 01:29N 51°51' E 002°39'613.4
2017-Aug-12 01:00N 51°45' E 002°33'713.2
2017-Aug-12 00:27N 51°40' E 002°26'612.8
2017-Aug-12 00:00N 51°35' E 002°20'612.5
2017-Aug-11 23:30N 51°30' E 002°15'612.2
2017-Aug-11 23:00N 51°24' E 002°11'612.3
2017-Aug-11 22:30N 51°21' E 002°20'714.6
2017-Aug-11 22:00N 51°23' E 002°31'713.9
2017-Aug-11 21:30N 51°23' E 002°42'5 9.7
2017-Aug-11 21:00N 51°22' E 002°50'713.9
2017-Aug-11 20:30N 51°24' E 003°00'714.1
2017-Aug-11 20:00N 51°24' E 003°12'815.6
2017-Aug-11 19:30N 51°25' E 003°24'815.8
2017-Aug-11 19:01N 51°26' E 003°37'611.0
2017-Aug-11 18:30N 51°24' E 003°45'0 0.4
2017-Aug-11 17:57N 51°24' E 003°45'0 0.5
2017-Aug-11 17:30N 51°24' E 003°45'0 0.1
2017-Aug-11 17:00N 51°24' E 003°45'0 0.0
2017-Aug-11 16:30N 51°24' E 003°45'0 0.0
2017-Aug-11 16:00N 51°24' E 003°45'0 0.0
2017-Aug-11 15:30N 51°24' E 003°45'0 0.0
2017-Aug-11 15:00N 51°24' E 003°45'0 0.0
2017-Aug-11 14:00N 51°24' E 003°45'0 0.0
2017-Aug-11 13:27N 51°24' E 003°45'0 0.0
2017-Aug-11 13:00N 51°24' E 003°45'0 0.0
2017-Aug-11 12:30N 51°24' E 003°45'0 0.0
2017-Aug-11 12:00N 51°24' E 003°45'0 0.0
2017-Aug-11 11:30N 51°24' E 003°45'0 0.0
2017-Aug-11 11:00N 51°24' E 003°45'0 0.4
2017-Aug-11 10:27N 51°24' E 003°45'0 0.2
2017-Aug-11 10:00N 51°24' E 003°45'0 0.0
2017-Aug-11 09:30N 51°24' E 003°45'0 0.0
2017-Aug-11 08:57N 51°24' E 003°45'0 0.0
2017-Aug-11 08:30N 51°24' E 003°45'0 0.0
2017-Aug-11 08:00N 51°24' E 003°45'0 0.0
2017-Aug-11 07:27N 51°24' E 003°45'0 0.0
2017-Aug-11 06:57N 51°24' E 003°45'0 0.2
2017-Aug-11 06:31N 51°24' E 003°45'1 1.9
2017-Aug-11 06:00N 51°24' E 003°44'5 9.4
2017-Aug-11 05:30N 51°26' E 003°36'713.2
2017-Aug-11 05:00N 51°25' E 003°26'714.2
2017-Aug-11 04:31N 51°25' E 003°15'714.4
2017-Aug-11 04:01N 51°24' E 003°03'815.1
2017-Aug-11 03:31N 51°22' E 002°52'713.0
2017-Aug-11 03:00N 51°22' E 002°41'611.9
2017-Aug-11 02:30N 51°22' E 002°32'612.6
2017-Aug-11 02:00N 51°20' E 002°22'815.4
2017-Aug-11 01:30N 51°16' E 002°12'815.3
2017-Aug-11 01:00N 51°12' E 002°01'815.3
2017-Aug-11 00:30N 51°08' E 001°51'815.4
2017-Aug-11 00:00N 51°03' E 001°42'714.8
2017-Aug-10 23:30N 50°58' E 001°33'713.9
2017-Aug-10 23:00N 50°52' E 001°28'713.4
2017-Aug-10 22:28N 50°45' E 001°24'2113.0
2017-Aug-10 20:50N 50°31' E 000°59'1412.8
2017-Aug-10 19:45N 50°26' E 000°39'512.6
2017-Aug-10 19:19N 50°25' E 000°30'512.5
2017-Aug-10 18:55N 50°24' E 000°23'512.3
2017-Aug-10 18:30N 50°22' E 000°15'612.1
2017-Aug-10 18:00N 50°20' E 000°06'612.0
2017-Aug-10 17:29N 50°19' W 000°03'611.7
2017-Aug-10 17:00N 50°17' W 000°12'611.4
2017-Aug-10 16:30N 50°16' W 000°20'1511.1
2017-Aug-10 15:08N 50°12' W 000°43'110.9
2017-Aug-10 15:00N 50°11' W 000°46'511.0
2017-Aug-10 14:30N 50°10' W 000°54'611.4
2017-Aug-10 14:00N 50°08' W 001°02'612.0
2017-Aug-10 13:30N 50°06' W 001°11'612.8
2017-Aug-10 13:00N 50°04' W 001°21'713.6
2017-Aug-10 12:30N 50°02' W 001°31'714.4
2017-Aug-10 12:00N 50°00' W 001°41'815.1
2017-Aug-10 11:30N 49°59' W 001°53'815.6
2017-Aug-10 11:01N 49°57' W 002°05'2215.9
2017-Aug-10 09:39N 49°51' W 002°37'215.7
2017-Aug-10 09:31N 49°51' W 002°40'815.6
2017-Aug-10 09:01N 49°49' W 002°52'815.3
2017-Aug-10 08:31N 49°46' W 003°03'815.0
2017-Aug-10 08:01N 49°43' W 003°13'815.0
2017-Aug-10 07:31N 49°39' W 003°23'815.0
2017-Aug-10 07:00N 49°35' W 003°33'715.0
2017-Aug-10 06:31N 49°31' W 003°43'914.9
2017-Aug-10 05:55N 49°26' W 003°55'1014.7
2017-Aug-10 05:13N 49°21' W 004°08'3913.8
2017-Aug-10 02:25N 49°02' W 004°59'512.8
2017-Aug-10 02:00N 48°59' W 005°06'612.4
2017-Aug-10 01:30N 48°56' W 005°14'612.2
2017-Aug-10 01:00N 48°53' W 005°22'611.8
2017-Aug-10 00:30N 48°50' W 005°30'611.4
2017-Aug-10 00:00N 48°47' W 005°37'76 9.9
2017-Aug-09 16:22N 47°33' W 005°11'6912.8
2017-Aug-09 11:01N 46°60' W 003°43'113.9
2017-Aug-09 10:55N 46°59' W 003°41'613.9
2017-Aug-09 10:30N 46°59' W 003°32'914.0
2017-Aug-09 09:53N 47°00' W 003°20'513.7
2017-Aug-09 09:30N 47°00' W 003°12'713.9
2017-Aug-09 09:00N 47°01' W 003°02'714.1
2017-Aug-09 08:30N 47°02' W 002°52'713.8
2017-Aug-09 08:00N 47°01' W 002°42'714.5
2017-Aug-09 07:30N 47°03' W 002°31'713.8
2017-Aug-09 07:00N 47°07' W 002°23'510.5
2017-Aug-09 06:30N 47°11' W 002°18'713.8
2017-Aug-09 06:01N 47°16' W 002°12'4 8.4
2017-Aug-09 05:29N 47°18' W 002°06'0 0.1
2017-Aug-09 04:13N 47°18' W 002°06'0 0.0
2017-Aug-09 03:22N 47°18' W 002°06'0 0.0
2017-Aug-09 02:34N 47°18' W 002°06'0 0.0
2017-Aug-09 02:28N 47°18' W 002°06'0 0.0
2017-Aug-09 01:25N 47°18' W 002°06'0 0.0
2017-Aug-09 00:55N 47°18' W 002°06'0 0.0
2017-Aug-09 00:28N 47°18' W 002°06'0 0.0
2017-Aug-08 23:58N 47°18' W 002°06'0 0.0
2017-Aug-08 23:28N 47°18' W 002°06'0 0.0
2017-Aug-08 22:58N 47°18' W 002°06'0 0.0
2017-Aug-08 22:28N 47°18' W 002°06'0 0.0
2017-Aug-08 21:58N 47°18' W 002°06'0 0.0
2017-Aug-08 21:28N 47°18' W 002°06'0 0.0
2017-Aug-08 20:58N 47°18' W 002°06'0 0.0
2017-Aug-08 20:22N 47°18' W 002°06'0 0.0
2017-Aug-08 19:55N 47°18' W 002°06'0 0.0
2017-Aug-08 19:13N 47°18' W 002°06'0 0.0
2017-Aug-08 18:49N 47°18' W 002°06'0 0.0
2017-Aug-08 18:25N 47°18' W 002°06'0 0.0
2017-Aug-08 17:43N 47°18' W 002°06'0 0.0
2017-Aug-08 17:22N 47°18' W 002°06'0 0.0
2017-Aug-08 16:46N 47°18' W 002°06'0 0.0
2017-Aug-08 16:28N 47°18' W 002°06'0 0.0
2017-Aug-08 15:55N 47°18' W 002°06'0 0.0
2017-Aug-08 15:25N 47°18' W 002°06'0 0.0
2017-Aug-08 14:55N 47°18' W 002°06'0 0.0
2017-Aug-08 14:28N 47°18' W 002°06'0 0.0
2017-Aug-08 13:55N 47°18' W 002°06'0 0.0
2017-Aug-08 13:28N 47°18' W 002°06'0 0.0
2017-Aug-08 12:58N 47°18' W 002°06'0 0.0
2017-Aug-08 12:28N 47°18' W 002°06'0 0.0
2017-Aug-08 09:10N 47°18' W 002°06'0 0.0
2017-Aug-08 08:55N 47°18' W 002°06'0 0.0
2017-Aug-08 08:25N 47°18' W 002°06'0 0.0
2017-Aug-08 07:55N 47°18' W 002°06'0 0.0
2017-Aug-08 07:28N 47°18' W 002°06'0 0.0
2017-Aug-08 06:58N 47°18' W 002°06'0 0.0
2017-Aug-08 06:22N 47°18' W 002°06'0 0.0
2017-Aug-08 05:58N 47°18' W 002°06'0 0.0
2017-Aug-08 05:28N 47°18' W 002°06'0 0.0
2017-Aug-08 04:52N 47°18' W 002°06'0 0.0
2017-Aug-08 04:25N 47°18' W 002°06'0 0.0
2017-Aug-08 03:58N 47°18' W 002°06'0 0.0
2017-Aug-08 03:19N 47°18' W 002°06'0 0.0
2017-Aug-08 02:58N 47°18' W 002°06'0 0.0
2017-Aug-08 02:10N 47°18' W 002°06'0 0.0
2017-Aug-08 01:55N 47°18' W 002°06'0 0.0
2017-Aug-08 01:28N 47°18' W 002°06'0 0.0
2017-Aug-08 00:46N 47°18' W 002°06'0 0.0
2017-Aug-08 00:22N 47°18' W 002°06'0 0.0
2017-Aug-07 23:55N 47°18' W 002°06'0 0.0
2017-Aug-07 23:28N 47°18' W 002°06'0 0.0
2017-Aug-07 22:58N 47°18' W 002°06'0 0.0
2017-Aug-07 22:16N 47°18' W 002°06'0 0.0
2017-Aug-07 21:01N 47°18' W 002°06'0 0.0
2017-Aug-07 20:49N 47°18' W 002°06'0 0.0
2017-Aug-07 20:19N 47°18' W 002°06'0 0.0
2017-Aug-07 19:52N 47°18' W 002°06'0 0.0
2017-Aug-07 19:25N 47°18' W 002°06'0 0.0
2017-Aug-07 18:58N 47°18' W 002°06'0 0.0
2017-Aug-07 18:10N 47°18' W 002°06'0 0.0
2017-Aug-07 16:46N 47°18' W 002°06'0 0.0
2017-Aug-07 16:20N 47°18' W 002°06'0 0.7
2017-Aug-07 15:57N 47°18' W 002°06'2 4.6
2017-Aug-07 15:30N 47°18' W 002°09'710.1
2017-Aug-07 14:48N 47°13' W 002°17'412.7
2017-Aug-07 14:30N 47°09' W 002°19'4 7.7
2017-Aug-07 14:00N 47°07' W 002°23'1 2.7
2017-Aug-07 13:29N 47°07' W 002°25'1 2.2
2017-Aug-07 13:00N 47°07' W 002°27'1 1.3
2017-Aug-07 12:28N 47°06' W 002°28'0 0.1
2017-Aug-07 11:58N 47°06' W 002°28'0 0.0
2017-Aug-07 11:28N 47°06' W 002°28'0 0.0
2017-Aug-07 10:55N 47°06' W 002°28'0 0.2
2017-Aug-07 10:22N 47°06' W 002°28'0 0.2
2017-Aug-07 09:58N 47°06' W 002°28'0 0.1
2017-Aug-07 09:28N 47°06' W 002°28'0 0.1
2017-Aug-07 08:58N 47°06' W 002°28'0 0.0
2017-Aug-07 08:28N 47°06' W 002°28'0 0.0
2017-Aug-07 07:58N 47°06' W 002°28'0 0.0
2017-Aug-07 07:25N 47°06' W 002°28'0 0.0
2017-Aug-07 06:58N 47°06' W 002°28'0 0.0
2017-Aug-07 06:28N 47°06' W 002°28'0 0.0
2017-Aug-07 05:58N 47°06' W 002°28'1 1.1
2017-Aug-07 05:30N 47°05' W 002°28'3 5.4
2017-Aug-07 05:00N 47°03' W 002°30'3 6.7
2017-Aug-07 04:30N 47°01' W 002°34'4 8.4
2017-Aug-07 04:00N 46°59' W 002°40'5 9.7
2017-Aug-07 03:30N 46°57' W 002°46'5 9.6
2017-Aug-07 03:00N 46°54' W 002°52'5 9.9
2017-Aug-07 02:30N 46°52' W 002°58'510.2
2017-Aug-07 02:01N 46°50' W 003°05'510.4
2017-Aug-07 01:30N 46°47' W 003°12'510.1
2017-Aug-07 01:00N 46°45' W 003°18'5 9.9
2017-Aug-07 00:29N 46°43' W 003°25'1010.1
2017-Aug-06 23:32N 46°39' W 003°38'0 9.9
2017-Aug-06 23:29N 46°38' W 003°38'610.3
2017-Aug-06 22:54N 46°35' W 003°45'5 9.9
2017-Aug-06 22:25N 46°32' W 003°51'7 9.3
2017-Aug-06 21:39N 46°28' W 004°00'7 6.7
2017-Aug-06 20:33N 46°25' W 004°09'1 6.4
2017-Aug-06 20:25N 46°24' W 004°11'  

Dump ship's entire track history